Time;durP1;ratioP1;P1;durP2;ratioP2;P2;SDS_P1;SDS_P2;PMS_P1;PMS_P2;Temp;Humidity;BMP_temperature;BMP_pressure;BME280_temperature;BME280_humidity;BME280_pressure;Samples;Min_cycle;Max_cycle;Signal;HPM_P1;HPM_P2
2023/08/19 00:00:26;;;;;;;7.10;4.30;;;;;;;22.55;100.00;100521.42;108766;1260;66330;-62
2023/08/19 00:02:55;;;;;;;7.70;4.60;;;;;;;22.52;100.00;100520.45;108690;1259;71381;-65
2023/08/19 00:05:23;;;;;;;6.30;4.50;;;;;;;22.49;100.00;100516.17;108720;1263;61997;-62
2023/08/19 00:07:51;;;;;;;6.40;4.60;;;;;;;22.49;100.00;100518.94;108717;1260;59429;-65
2023/08/19 00:10:18;;;;;;;5.50;4.30;;;;;;;22.49;100.00;100513.09;108731;1259;73129;-62
2023/08/19 00:12:46;;;;;;;8.40;4.80;;;;;;;22.49;100.00;100514.89;108735;1260;66834;-66
2023/08/19 00:15:14;;;;;;;6.30;4.70;;;;;;;22.48;100.00;100510.33;108748;1259;72385;-62
2023/08/19 00:17:41;;;;;;;8.80;4.80;;;;;;;22.51;100.00;100510.45;108733;1262;60267;-62
2023/08/19 00:20:10;;;;;;;5.80;4.40;;;;;;;22.53;100.00;100507.75;108692;1260;59279;-64
2023/08/19 00:22:38;;;;;;;5.70;4.10;;;;;;;22.54;100.00;100505.10;108806;1257;73125;-62
2023/08/19 00:25:06;;;;;;;5.30;4.60;;;;;;;22.52;100.00;100504.77;108780;1259;66941;-62
2023/08/19 00:27:34;;;;;;;8.30;4.20;;;;;;;22.49;100.00;100506.98;108794;1257;72799;-62
2023/08/19 00:30:01;;;;;;;9.10;4.40;;;;;;;22.46;100.00;100506.48;108727;1257;60481;-62
2023/08/19 00:32:30;;;;;;;10.50;4.90;;;;;;;22.43;100.00;100511.13;108770;1257;58863;-62
2023/08/19 00:34:58;;;;;;;7.20;4.00;;;;;;;22.38;100.00;100512.65;108747;1257;73539;-63
2023/08/19 00:37:25;;;;;;;7.40;5.10;;;;;;;22.32;100.00;100509.63;108797;1257;65796;-62
2023/08/19 00:39:53;;;;;;;5.70;4.70;;;;;;;22.26;100.00;100508.42;108746;1258;71513;-64
2023/08/19 00:42:21;;;;;;;6.80;4.60;;;;;;;22.18;100.00;100510.22;108770;1257;60136;-63
2023/08/19 00:44:49;;;;;;;7.30;4.90;;;;;;;22.09;100.00;100514.41;108742;1257;58791;-64
2023/08/19 00:47:17;;;;;;;9.80;4.90;;;;;;;22.02;100.00;100516.31;108719;1260;71068;-62
2023/08/19 00:49:45;;;;;;;15.70;5.70;;;;;;;21.98;100.00;100517.45;108765;1257;65426;-65
2023/08/19 00:52:13;;;;;;;9.70;7.20;;;;;;;21.93;100.00;100515.81;108752;1257;71915;-62
2023/08/19 00:54:40;;;;;;;12.00;7.30;;;;;;;21.91;100.00;100513.56;108747;1259;60573;-65
2023/08/19 00:57:09;;;;;;;10.80;7.10;;;;;;;21.90;100.00;100517.13;108757;1260;60061;-62
2023/08/19 00:59:37;;;;;;;10.20;7.00;;;;;;;21.88;100.00;100513.70;108766;1257;73234;-62
2023/08/19 01:02:05;;;;;;;9.80;6.30;;;;;;;21.87;100.00;100511.84;109085;1254;67034;-64
2023/08/19 01:04:32;;;;;;;8.40;5.70;;;;;;;21.85;100.00;100514.69;108958;1256;72723;-65
2023/08/19 01:07:09;;;;;;;8.70;6.00;;;;;;;21.86;100.00;100515.55;109014;1256;58861;-62
2023/08/19 01:09:56;;;;;;;7.90;5.90;;;;;;;21.87;100.00;100513.65;108992;1256;60094;-63
2023/08/19 01:12:34;;;;;;;11.90;6.00;;;;;;;21.90;100.00;100519.14;108948;1256;73636;-63
2023/08/19 01:15:17;;;;;;;7.70;5.90;;;;;;;21.89;100.00;100512.95;108932;1255;67095;-62
2023/08/19 01:17:45;;;;;;;8.00;5.20;;;;;;;21.90;100.00;100510.54;108958;1255;72447;-65
2023/08/19 01:20:13;;;;;;;11.20;6.30;;;;;;;21.93;100.00;100509.60;108873;1254;60547;-65
2023/08/19 01:22:52;;;;;;;9.70;6.50;;;;;;;21.95;100.00;100509.30;108829;1254;60062;-62
2023/08/19 01:25:20;;;;;;;9.70;6.20;;;;;;;21.95;100.00;100510.09;109007;1254;71863;-63
2023/08/19 01:27:48;;;;;;;9.70;6.10;;;;;;;21.95;100.00;100508.67;108867;1254;65988;-64
2023/08/19 01:30:15;;;;;;;6.20;4.70;;;;;;;21.98;100.00;100505.52;108978;1257;73578;-63
2023/08/19 01:32:43;;;;;;;9.20;5.70;;;;;;;22.00;100.00;100504.02;109008;1254;60118;-63
2023/08/19 01:35:12;;;;;;;7.80;5.60;;;;;;;22.02;100.00;100510.02;109023;1254;60139;-62
2023/08/19 01:37:43;;;;;;;8.40;6.00;;;;;;;22.03;100.00;100505.92;108911;1255;73118;-62
2023/08/19 01:40:13;;;;;;;7.90;5.50;;;;;;;22.04;100.00;100506.88;109010;1255;65420;-63
2023/08/19 01:42:41;;;;;;;10.60;5.60;;;;;;;22.04;100.00;100503.91;109034;1254;72719;-63
2023/08/19 01:45:09;;;;;;;6.20;4.70;;;;;;;22.06;100.00;100507.65;109004;1256;58934;-62
2023/08/19 01:47:42;;;;;;;8.90;5.40;;;;;;;22.08;100.00;100510.94;108955;1254;60609;-64
2023/08/19 01:50:10;;;;;;;6.40;5.60;;;;;;;22.09;100.00;100509.16;108880;1257;72381;-63
2023/08/19 01:52:38;;;;;;;11.60;5.10;;;;;;;22.09;100.00;100505.82;109089;1254;66882;-62
2023/08/19 01:55:06;;;;;;;12.20;6.60;;;;;;;22.12;100.00;100508.89;108913;1255;72837;-63
2023/08/19 01:57:34;;;;;;;9.10;5.50;;;;;;;22.18;100.00;100510.73;109008;1256;58852;-63
2023/08/19 02:00:03;;;;;;;7.00;5.10;;;;;;;22.20;100.00;100512.73;108948;1254;58817;-66
2023/08/19 02:02:40;;;;;;;6.90;5.60;;;;;;;22.22;100.00;100508.55;109056;1254;71885;-63
2023/08/19 02:05:12;;;;;;;6.90;5.60;;;;;;;22.21;100.00;100511.73;109045;1256;66937;-63
2023/08/19 02:07:40;;;;;;;6.30;5.10;;;;;;;22.19;100.00;100512.39;109058;1256;72774;-64
2023/08/19 02:10:08;;;;;;;9.00;5.10;;;;;;;22.15;100.00;100511.73;108891;1255;60955;-63
2023/08/19 02:12:36;;;;;;;8.40;5.10;;;;;;;22.09;100.00;100508.63;109073;1254;58745;-63
2023/08/19 02:15:04;;;;;;;6.60;5.20;;;;;;;22.05;100.00;100512.10;108923;1254;71931;-63
2023/08/19 02:17:32;;;;;;;9.50;5.20;;;;;;;22.01;100.00;100512.54;109028;1254;67414;-63
2023/08/19 02:20:00;;;;;;;7.60;5.40;;;;;;;22.00;100.00;100517.24;108920;1255;73207;-64
2023/08/19 02:22:28;;;;;;;6.90;5.90;;;;;;;22.00;100.00;100517.41;108908;1256;60645;-63
2023/08/19 02:24:55;;;;;;;8.80;5.20;;;;;;;22.00;100.00;100518.36;109112;1257;58725;-63
2023/08/19 02:27:24;;;;;;;7.40;5.70;;;;;;;21.95;100.00;100519.39;109170;1253;73136;-64
2023/08/19 02:29:52;;;;;;;7.00;5.80;;;;;;;21.93;100.00;100524.46;109076;1253;65700;-64
2023/08/19 02:32:19;;;;;;;7.30;5.30;;;;;;;21.83;100.00;100530.21;109174;1253;73069;-63
2023/08/19 02:34:47;;;;;;;11.10;6.50;;;;;;;21.71;100.00;100532.16;109143;1253;60568;-63
2023/08/19 02:37:15;;;;;;;10.20;5.90;;;;;;;21.58;100.00;100532.66;109176;1253;60016;-63
2023/08/19 02:39:42;;;;;;;9.50;6.90;;;;;;;21.48;100.00;100535.14;109131;1253;72191;-66
2023/08/19 02:42:15;;;;;;;8.10;6.70;;;;;;;21.42;100.00;100539.27;109142;1253;67617;-63
2023/08/19 02:44:43;;;;;;;10.80;6.90;;;;;;;21.33;100.00;100541.05;109116;1254;72855;-63
2023/08/19 02:47:11;;;;;;;8.60;6.30;;;;;;;21.25;100.00;100547.59;109134;1253;60496;-64
2023/08/19 02:49:38;;;;;;;11.40;7.60;;;;;;;21.20;100.00;100553.45;109141;1253;59960;-63
2023/08/19 02:52:06;;;;;;;10.00;7.30;;;;;;;21.18;100.00;100552.95;109101;1253;73930;-66
2023/08/19 02:54:34;;;;;;;11.40;7.70;;;;;;;21.17;100.00;100552.19;109188;1253;65646;-63
2023/08/19 02:57:02;;;;;;;9.10;6.20;;;;;;;21.15;100.00;100554.88;109229;1253;72491;-66
2023/08/19 02:59:29;;;;;;;8.50;6.40;;;;;;;21.15;100.00;100558.60;109106;1253;62220;-63
2023/08/19 03:01:57;;;;;;;7.60;5.80;;;;;;;21.18;100.00;100553.43;109105;1253;60133;-66
2023/08/19 03:04:25;;;;;;;7.80;6.70;;;;;;;21.23;100.00;100554.34;109145;1253;74468;-63
2023/08/19 03:06:52;;;;;;;10.30;6.40;;;;;;;21.34;100.00;100556.40;109188;1253;66781;-63
2023/08/19 03:09:20;;;;;;;8.60;5.50;;;;;;;21.50;100.00;100554.76;109137;1253;72713;-64
2023/08/19 03:11:48;;;;;;;6.60;5.40;;;;;;;21.65;100.00;100552.20;109150;1253;60101;-63
2023/08/19 03:14:15;;;;;;;6.90;5.90;;;;;;;21.77;100.00;100546.91;109229;1253;60177;-66
2023/08/19 03:16:43;;;;;;;8.20;5.40;;;;;;;21.91;100.00;100541.91;109139;1253;73929;-63
2023/08/19 03:19:11;;;;;;;10.40;5.90;;;;;;;22.02;100.00;100537.13;109122;1258;65721;-65
2023/08/19 03:21:39;;;;;;;9.30;5.80;;;;;;;22.13;100.00;100536.76;108996;1253;72712;-63
2023/08/19 03:24:06;;;;;;;8.30;5.70;;;;;;;22.22;100.00;100534.98;109100;1253;60095;-65
2023/08/19 03:26:35;;;;;;;7.90;6.80;;;;;;;22.30;100.00;100538.09;109138;1258;58835;-63
2023/08/19 03:29:02;;;;;;;8.20;6.50;;;;;;;22.37;100.00;100544.09;109155;1253;74385;-64
2023/08/19 03:31:30;;;;;;;8.30;6.30;;;;;;;22.45;100.00;100546.27;109163;1253;67754;-63
2023/08/19 03:33:58;;;;;;;7.60;5.80;;;;;;;22.71;100.00;100551.02;109001;1253;72712;-66
2023/08/19 03:36:26;;;;;;;9.20;6.90;;;;;;;23.14;100.00;100552.08;109000;1253;60609;-63
2023/08/19 03:38:53;;;;;;;8.40;6.60;;;;;;;23.80;100.00;100545.33;109049;1253;60110;-64
2023/08/19 03:41:21;;;;;;;9.80;6.90;;;;;;;24.71;100.00;100538.42;109132;1253;73965;-64
2023/08/19 03:43:49;;;;;;;10.20;7.10;;;;;;;25.64;100.00;100530.97;109193;1253;65846;-63
2023/08/19 03:46:17;;;;;;;8.70;6.00;;;;;;;26.59;100.00;100515.98;109149;1253;71391;-64
2023/08/19 03:48:44;;;;;;;9.70;6.80;;;;;;;27.58;100.00;100509.66;108999;1255;60922;-63
2023/08/19 03:51:14;;;;;;;8.70;6.40;;;;;;;28.61;100.00;100502.91;108969;1253;58819;-64
2023/08/19 03:53:42;;;;;;;7.90;6.50;;;;;;;29.54;100.00;100496.23;109039;1253;74017;-64
2023/08/19 03:56:09;;;;;;;7.20;5.60;;;;;;;30.45;100.00;100492.87;109123;1258;65655;-64
2023/08/19 03:58:37;;;;;;;8.60;5.70;;;;;;;31.39;100.00;100493.27;109148;1253;72738;-63
2023/08/19 04:01:08;;;;;;;10.50;5.60;;;;;;;32.33;100.00;100500.63;108944;1254;59163;-66
2023/08/19 04:03:39;;;;;;;5.80;4.60;;;;;;;33.17;100.00;100494.83;109131;1253;60323;-63
2023/08/19 04:06:09;;;;;;;7.60;4.80;;;;;;;33.79;100.00;100499.51;108984;1259;73899;-63
2023/08/19 04:08:36;;;;;;;7.60;4.70;;;;;;;34.08;96.80;100497.55;109176;1253;66804;-64
2023/08/19 04:11:05;;;;;;;8.80;4.50;;;;;;;34.25;92.55;100498.11;109084;1259;71901;-65
2023/08/19 04:13:32;;;;;;;5.80;4.20;;;;;;;34.48;89.28;100501.05;109126;1253;58151;-65
2023/08/19 04:16:04;;;;;;;5.80;4.50;;;;;;;34.70;83.46;100504.16;109215;1258;58193;-64
2023/08/19 04:18:32;;;;;;;5.70;3.90;;;;;;;34.92;79.79;100500.63;109036;1253;73835;-63
2023/08/19 04:21:04;;;;;;;7.10;4.10;;;;;;;35.03;73.75;100499.05;109028;1253;58349;-66
2023/08/19 04:23:35;;;;;;;6.10;4.00;;;;;;;35.12;68.40;100501.34;109332;1253;63809;-65
2023/08/19 04:26:04;;;;;;;5.20;3.30;;;;;;;35.30;64.51;100501.98;109340;1251;58145;-62
2023/08/19 04:28:32;;;;;;;4.90;3.40;;;;;;;35.28;56.84;100501.70;109335;1251;58316;-63
2023/08/19 04:31:03;;;;;;;7.70;4.50;;;;;;;35.09;56.63;100502.48;109238;1257;63702;-65
2023/08/19 04:33:36;;;;;;;5.10;3.70;;;;;;;34.94;58.08;100501.94;109316;1251;58371;-64
2023/08/19 04:36:04;;;;;;;4.60;3.50;;;;;;;35.05;58.77;100499.88;109298;1252;70672;-64
2023/08/19 04:38:32;;;;;;;5.40;3.50;;;;;;;35.26;56.69;100502.59;109373;1251;58497;-64
2023/08/19 04:41:02;;;;;;;5.60;3.20;;;;;;;35.48;52.51;100499.42;109271;1254;58179;-64
2023/08/19 04:43:36;;;;;;;7.20;3.70;;;;;;;35.52;51.38;100501.95;109325;1251;64989;-64
2023/08/19 04:46:04;;;;;;;6.90;4.10;;;;;;;35.46;49.54;100503.69;109388;1251;58198;-63
2023/08/19 04:48:33;;;;;;;5.00;3.50;;;;;;;35.18;50.07;100502.27;109298;1252;63814;-65
2023/08/19 04:51:00;;;;;;;5.30;3.80;;;;;;;35.06;51.80;100502.73;109193;1251;58254;-67
2023/08/19 04:53:30;;;;;;;6.80;4.00;;;;;;;35.16;51.70;100503.69;109384;1251;58155;-63
2023/08/19 04:55:59;;;;;;;5.60;4.10;;;;;;;35.24;50.67;100500.21;109319;1251;72610;-64
2023/08/19 04:58:27;;;;;;;8.60;4.20;;;;;;;35.35;49.75;100498.98;109353;1251;58653;-65
2023/08/19 05:00:55;;;;;;;5.60;3.70;;;;;;;35.51;49.16;100502.85;109324;1254;72255;-66
2023/08/19 05:03:23;;;;;;;5.50;3.60;;;;;;;35.65;49.95;100501.38;109298;1251;58679;-63
2023/08/19 05:05:51;;;;;;;4.10;3.30;;;;;;;35.98;49.00;100502.94;109326;1251;58703;-64
2023/08/19 05:08:23;;;;;;;5.70;3.80;;;;;;;36.39;46.42;100504.67;109260;1251;64945;-64
2023/08/19 05:10:51;;;;;;;7.10;3.50;;;;;;;36.54;44.18;100506.28;109262;1251;58380;-65
2023/08/19 05:13:19;;;;;;;4.20;3.40;;;;;;;36.67;44.22;100504.08;109305;1254;62647;-65
2023/08/19 05:15:47;;;;;;;7.00;3.60;;;;;;;36.91;42.83;100502.92;109293;1256;58100;-64
2023/08/19 05:18:15;;;;;;;5.40;4.00;;;;;;;36.98;41.61;100501.63;109295;1251;58269;-64
2023/08/19 05:20:43;;;;;;;6.50;3.60;;;;;;;37.05;43.06;100501.52;109296;1251;65003;-65
2023/08/19 05:23:11;;;;;;;4.50;3.60;;;;;;;37.46;43.01;100500.64;109281;1251;58677;-66
2023/08/19 05:25:39;;;;;;;5.00;3.70;;;;;;;37.70;39.81;100501.49;109308;1256;63839;-64
2023/08/19 05:28:06;;;;;;;5.40;3.80;;;;;;;37.54;38.91;100502.22;109342;1251;58220;-64
2023/08/19 05:30:34;;;;;;;5.80;3.50;;;;;;;37.45;39.73;100504.55;109320;1251;58570;-66
2023/08/19 05:33:02;;;;;;;5.60;3.60;;;;;;;37.51;39.37;100503.86;109299;1251;64367;-64
2023/08/19 05:35:30;;;;;;;6.90;4.00;;;;;;;37.40;39.04;100506.28;109344;1256;58302;-64
2023/08/19 05:37:57;;;;;;;7.50;3.90;;;;;;;37.40;40.80;100510.42;109412;1251;63787;-64
2023/08/19 05:40:25;;;;;;;7.60;4.20;;;;;;;37.63;40.60;100510.39;109330;1256;58728;-64
2023/08/19 05:42:52;;;;;;;5.10;3.80;;;;;;;37.73;39.58;100508.31;109297;1251;58562;-64
2023/08/19 05:45:20;;;;;;;4.90;3.50;;;;;;;37.77;39.70;100510.81;109266;1251;65035;-67
2023/08/19 05:47:48;;;;;;;6.20;3.80;;;;;;;37.74;39.23;100511.15;109340;1251;67900;-63
2023/08/19 05:50:17;;;;;;;7.20;4.00;;;;;;;37.60;39.75;100514.63;109357;1252;63827;-63
2023/08/19 05:52:44;;;;;;;6.80;4.30;;;;;;;37.57;39.71;100517.74;109311;1251;58569;-65
2023/08/19 05:55:12;;;;;;;6.60;3.90;;;;;;;37.52;39.23;100524.95;109324;1256;58334;-63
2023/08/19 05:57:39;;;;;;;6.50;4.40;;;;;;;37.46;39.93;100526.15;109285;1251;63708;-64
2023/08/19 06:00:08;;;;;;;5.20;4.30;;;;;;;37.57;40.23;100526.45;109426;1251;58696;-63
2023/08/19 06:02:41;;;;;;;6.40;3.80;;;;;;;37.52;39.09;100522.23;109299;1251;62667;-64
2023/08/19 06:05:09;;;;;;;5.60;4.10;;;;;;;37.23;39.72;100527.44;109312;1254;58657;-65
2023/08/19 06:07:37;;;;;;;6.30;4.20;;;;;;;36.95;41.47;100527.69;109313;1251;58190;-63
2023/08/19 06:10:05;;;;;;;6.90;3.60;;;;;;;36.72;42.22;100526.79;109314;1251;65043;-63
2023/08/19 06:12:33;;;;;;;5.10;4.50;;;;;;;36.66;44.01;100526.58;109332;1251;58408;-65
2023/08/19 06:15:01;;;;;;;6.00;4.10;;;;;;;36.67;43.67;100532.89;109378;1251;62590;-63
2023/08/19 06:17:28;;;;;;;10.30;4.40;;;;;;;36.65;44.14;100529.58;109289;1251;58176;-65
2023/08/19 06:19:56;;;;;;;5.90;4.10;;;;;;;36.69;44.58;100529.44;109337;1251;58607;-64
2023/08/19 06:22:24;;;;;;;8.50;4.80;;;;;;;36.74;45.09;100525.13;109316;1251;64732;-64
2023/08/19 06:24:51;;;;;;;7.40;4.50;;;;;;;36.76;44.44;100530.67;109325;1251;58687;-64
2023/08/19 06:27:19;;;;;;;6.70;3.90;;;;;;;36.65;46.05;100538.13;109279;1251;62505;-63
2023/08/19 06:29:47;;;;;;;5.10;3.90;;;;;;;36.83;46.98;100539.46;109326;1251;58187;-65
2023/08/19 06:32:15;;;;;;;7.40;4.00;;;;;;;37.04;45.83;100540.88;109341;1251;58245;-63
2023/08/19 06:34:43;;;;;;;5.20;4.00;;;;;;;36.98;45.22;100538.25;109295;1251;63674;-65
2023/08/19 06:37:11;;;;;;;5.10;3.90;;;;;;;36.98;46.12;100537.70;109357;1251;58417;-65
2023/08/19 06:39:39;;;;;;;5.40;4.00;;;;;;;37.27;46.13;100541.06;109355;1250;62640;-63
2023/08/19 06:42:07;;;;;;;6.80;3.90;;;;;;;37.78;46.93;100540.67;109283;1254;58704;-64
2023/08/19 06:44:35;;;;;;;6.90;4.70;;;;;;;38.41;44.78;100542.81;109116;1251;58239;-66
2023/08/19 06:47:03;;;;;;;5.70;3.90;;;;;;;38.73;41.64;100541.67;109258;1251;65479;-66
2023/08/19 06:49:31;;;;;;;7.90;4.10;;;;;;;38.76;40.98;100544.29;109329;1251;58596;-65
2023/08/19 06:51:59;;;;;;;6.90;4.60;;;;;;;38.69;40.01;100547.52;109333;1251;62664;-66
2023/08/19 06:54:26;;;;;;;7.30;4.60;;;;;;;38.72;40.32;100544.23;109252;1251;58161;-66
2023/08/19 06:57:05;;;;;;;8.40;4.90;;;;;;;38.78;40.15;100546.56;109321;1251;58678;-65
2023/08/19 06:59:40;;;;;;;6.00;4.40;;;;;;;38.76;41.02;100545.75;109356;1253;67040;-64
2023/08/19 07:02:08;;;;;;;6.40;4.40;;;;;;;38.85;42.04;100546.38;109375;1251;58319;-64
2023/08/19 07:04:36;;;;;;;7.30;4.30;;;;;;;39.14;40.76;100542.63;109275;1251;63737;-65
2023/08/19 07:07:04;;;;;;;6.40;4.30;;;;;;;39.18;39.85;100547.77;109282;1252;58422;-66
2023/08/19 07:09:33;;;;;;;5.50;3.80;;;;;;;39.12;39.72;100548.92;109356;1251;58049;-65
2023/08/19 07:12:02;;;;;;;7.10;4.10;;;;;;;39.04;39.83;100552.71;109307;1251;76065;-65
2023/08/19 07:14:30;;;;;;;6.00;4.30;;;;;;;38.88;40.32;100554.44;109294;1251;58470;-66
2023/08/19 07:16:59;;;;;;;6.30;4.30;;;;;;;38.79;41.53;100555.70;109327;1252;62708;-69
2023/08/19 07:19:33;;;;;;;11.30;5.00;;;;;;;38.91;41.26;100557.30;109332;1253;58214;-65
2023/08/19 07:22:02;;;;;;;7.20;4.60;;;;;;;39.13;41.58;100559.06;109281;1251;58306;-65
2023/08/19 07:24:29;;;;;;;7.40;4.30;;;;;;;39.44;40.82;100557.52;109274;1251;63912;-67
2023/08/19 07:27:00;;;;;;;6.90;4.10;;;;;;;39.61;40.34;100558.19;109367;1251;58722;-68
2023/08/19 07:29:28;;;;;;;8.20;4.10;;;;;;;39.54;38.90;100557.02;109320;1251;63825;-66
2023/08/19 07:31:56;;;;;;;7.20;4.00;;;;;;;39.24;38.18;100554.85;109291;1251;58350;-66
2023/08/19 07:34:24;;;;;;;5.20;3.70;;;;;;;39.00;38.87;100553.98;109265;1251;58033;-67
2023/08/19 07:36:51;;;;;;;4.50;3.60;;;;;;;38.92;38.61;100552.64;109303;1250;63775;-66
2023/08/19 07:39:19;;;;;;;5.70;3.40;;;;;;;38.79;37.81;100553.08;109259;1254;58615;-67
2023/08/19 07:41:47;;;;;;;6.00;3.60;;;;;;;38.58;37.42;100554.14;109322;1253;62505;-66
2023/08/19 07:44:14;;;;;;;6.00;3.20;;;;;;;38.27;37.73;100558.20;109285;1251;60116;-68
2023/08/19 07:46:42;;;;;;;5.60;3.00;;;;;;;38.15;38.58;100560.48;109289;1256;58066;-67
2023/08/19 07:49:10;;;;;;;7.50;3.70;;;;;;;38.09;37.93;100558.98;109276;1251;63721;-66
2023/08/19 07:51:38;;;;;;;6.70;3.70;;;;;;;38.04;38.49;100556.71;109258;1251;58814;-66
2023/08/19 07:54:05;;;;;;;7.20;3.80;;;;;;;37.98;38.91;100556.77;109352;1251;64282;-65
2023/08/19 07:56:33;;;;;;;4.60;2.60;;;;;;;37.93;38.46;100556.36;109272;1251;58441;-66
2023/08/19 07:59:01;;;;;;;6.70;3.10;;;;;;;37.89;38.08;100558.64;109361;1251;58246;-66
2023/08/19 08:01:29;;;;;;;7.80;3.70;;;;;;;37.90;38.13;100560.91;109318;1251;65093;-65
2023/08/19 08:03:56;;;;;;;4.70;2.80;;;;;;;37.90;36.60;100561.67;109347;1251;58604;-64
2023/08/19 08:06:24;;;;;;;6.60;3.60;;;;;;;37.89;37.11;100558.61;109327;1251;62523;-64
2023/08/19 08:08:53;;;;;;;8.10;3.00;;;;;;;37.97;37.57;100556.06;109279;1251;58231;-63
2023/08/19 08:11:20;;;;;;;6.40;3.00;;;;;;;38.07;38.13;100556.77;109292;1251;58417;-65
2023/08/19 08:13:48;;;;;;;6.60;3.10;;;;;;;38.27;38.58;100552.77;109321;1251;65855;-64
2023/08/19 08:16:15;;;;;;;6.30;3.20;;;;;;;38.68;36.61;100552.34;109285;1251;58300;-64
2023/08/19 08:18:43;;;;;;;5.10;3.20;;;;;;;38.90;35.38;100551.83;109246;1253;62527;-66
2023/08/19 08:21:12;;;;;;;9.90;3.10;;;;;;;38.97;34.43;100547.94;109246;1251;58133;-63
2023/08/19 08:23:40;;;;;;;5.40;3.10;;;;;;;38.93;34.13;100548.38;109273;1251;58201;-66
2023/08/19 08:26:08;;;;;;;4.70;2.90;;;;;;;38.81;34.63;100550.45;109343;1251;65062;-63
2023/08/19 08:28:36;;;;;;;6.50;4.90;;;;;;;38.71;36.06;100549.05;109327;1251;58573;-65
2023/08/19 08:31:04;;;;;;;8.40;4.20;;;;;;;38.80;34.47;100545.85;109299;1251;63098;-62
2023/08/19 08:33:31;;;;;;;7.70;4.40;;;;;;;38.81;33.50;100543.38;109293;1251;58565;-67
2023/08/19 08:36:00;;;;;;;9.80;3.80;;;;;;;38.88;34.04;100541.27;109323;1251;58262;-65
2023/08/19 08:38:28;;;;;;;8.10;3.80;;;;;;;39.10;33.19;100541.96;109282;1251;65167;-66
2023/08/19 08:40:57;;;;;;;8.30;3.20;;;;;;;39.26;33.47;100540.48;109350;1251;58706;-67
2023/08/19 08:43:25;;;;;;;9.10;4.00;;;;;;;39.45;33.61;100540.88;109136;1251;63744;-67
2023/08/19 08:45:52;;;;;;;5.30;3.00;;;;;;;39.67;33.09;100536.68;109313;1251;58564;-65
2023/08/19 08:48:20;;;;;;;6.90;3.50;;;;;;;39.74;30.55;100537.15;109370;1251;58797;-64
2023/08/19 08:50:47;;;;;;;4.20;2.70;;;;;;;39.58;29.82;100540.32;109270;1251;65359;-64
2023/08/19 08:53:15;;;;;;;8.20;2.60;;;;;;;39.37;30.79;100539.77;109247;1251;58740;-63
2023/08/19 08:55:44;;;;;;;7.10;3.10;;;;;;;39.37;31.06;100539.98;109196;1251;64246;-65
2023/08/19 08:58:12;;;;;;;5.60;2.90;;;;;;;39.45;30.70;100538.68;109291;1252;58093;-63
2023/08/19 09:00:40;;;;;;;9.70;2.60;;;;;;;39.45;30.05;100539.38;109401;1251;58577;-65
2023/08/19 09:03:08;;;;;;;4.10;2.40;;;;;;;39.37;30.00;100536.73;109300;1251;63878;-64
2023/08/19 09:05:36;;;;;;;6.40;3.30;;;;;;;39.35;29.93;100538.80;109256;1251;65754;-64
2023/08/19 09:08:05;;;;;;;6.10;3.00;;;;;;;39.33;30.70;100537.45;109168;1251;63857;-64
2023/08/19 09:10:33;;;;;;;5.90;3.70;;;;;;;39.28;29.87;100538.56;109209;1251;58292;-66
2023/08/19 09:13:00;;;;;;;6.30;3.60;;;;;;;39.14;30.32;100538.52;109287;1254;58207;-64
2023/08/19 09:15:28;;;;;;;7.10;3.40;;;;;;;39.16;30.65;100540.73;109220;1251;63612;-64
2023/08/19 09:17:57;;;;;;;6.50;2.80;;;;;;;39.16;30.33;100542.13;109259;1253;58159;-66
2023/08/19 09:20:25;;;;;;;6.20;3.00;;;;;;;39.04;30.48;100539.78;109234;1253;62494;-66
2023/08/19 09:23:06;;;;;;;9.80;3.50;;;;;;;39.01;30.37;100538.04;109320;1251;58229;-64
2023/08/19 09:25:37;;;;;;;5.60;3.20;;;;;;;39.15;29.75;100537.36;109309;1251;58089;-66
2023/08/19 09:28:06;;;;;;;8.90;3.40;;;;;;;39.22;28.98;100538.70;109296;1251;65042;-64
2023/08/19 09:30:34;;;;;;;8.10;3.50;;;;;;;39.22;29.26;100541.42;109231;1254;58462;-67
2023/08/19 09:33:02;;;;;;;3.80;2.60;;;;;;;39.21;29.59;100537.59;109305;1251;63794;-64
2023/08/19 09:35:37;;;;;;;3.90;2.50;;;;;;;39.34;29.58;100536.83;109284;1251;58621;-64
2023/08/19 09:38:24;;;;;;;6.60;2.70;;;;;;;39.65;28.96;100535.40;109267;1251;58060;-66
2023/08/19 09:41:02;;;;;;;5.70;2.50;;;;;;;39.82;28.12;100537.23;109334;1251;65017;-65
2023/08/19 09:43:30;;;;;;;4.80;2.50;;;;;;;39.81;27.89;100533.02;109316;1251;58491;-67
2023/08/19 09:45:58;;;;;;;6.60;2.70;;;;;;;39.78;28.36;100529.15;109272;1252;62499;-66
2023/08/19 09:48:26;;;;;;;6.10;2.60;;;;;;;39.84;27.63;100531.10;109313;1251;58170;-66
2023/08/19 09:50:54;;;;;;;5.80;3.20;;;;;;;39.68;27.15;100532.64;109375;1251;58659;-64
2023/08/19 09:53:22;;;;;;;6.10;2.20;;;;;;;39.58;27.83;100529.94;109300;1251;65485;-65
2023/08/19 09:55:50;;;;;;;4.90;2.60;;;;;;;39.74;27.99;100528.65;109258;1250;58714;-66
2023/08/19 09:58:18;;;;;;;6.90;2.40;;;;;;;40.07;27.35;100525.69;109220;1251;63827;-64
2023/08/19 10:00:46;;;;;;;7.10;2.30;;;;;;;40.34;26.54;100527.16;109285;1251;58233;-64
2023/08/19 10:03:15;;;;;;;6.00;2.10;;;;;;;40.52;26.30;100525.27;109391;1251;58258;-64
2023/08/19 10:05:44;;;;;;;6.00;2.70;;;;;;;40.70;25.94;100522.27;109277;1251;64023;-65
2023/08/19 10:08:23;;;;;;;5.20;2.60;;;;;;;40.85;26.01;100526.73;109360;1251;58585;-63
2023/08/19 10:10:50;;;;;;;6.20;3.10;;;;;;;40.89;25.81;100523.64;109324;1251;63857;-64
2023/08/19 10:13:18;;;;;;;5.70;2.70;;;;;;;40.93;26.18;100523.19;109352;1251;58271;-65
2023/08/19 10:15:46;;;;;;;4.50;2.30;;;;;;;41.03;26.67;100522.01;109338;1251;58180;-64
2023/08/19 10:18:17;;;;;;;6.80;3.20;;;;;;;40.98;25.94;100519.85;109344;1251;65062;-64
2023/08/19 10:20:45;;;;;;;;;;;;;;;40.74;25.88;100518.16;109300;1251;58416;-64
2023/08/19 10:23:13;;;;;;;6.10;2.50;;;;;;;40.57;24.98;100525.70;109209;1251;63843;-66
2023/08/19 10:25:41;;;;;;;4.50;2.00;;;;;;;40.36;24.61;100527.18;109232;1251;58647;-64
2023/08/19 10:28:13;;;;;;;4.20;2.10;;;;;;;40.30;24.89;100525.35;109342;1251;58119;-64
2023/08/19 10:30:41;;;;;;;6.60;2.50;;;;;;;40.36;23.92;100526.25;109377;1251;65112;-64
2023/08/19 10:33:29;;;;;;;5.60;2.80;;;;;;;40.39;24.28;100520.48;109369;1251;58327;-65
2023/08/19 10:36:04;;;;;;;7.20;2.20;;;;;;;40.39;23.88;100519.55;109299;1251;63819;-64
2023/08/19 10:38:47;;;;;;;6.10;1.90;;;;;;;40.21;23.84;100519.12;109340;1251;58719;-64
2023/08/19 10:41:27;;;;;;;3.50;1.80;;;;;;;40.04;23.48;100522.77;109363;1251;58706;-63
2023/08/19 10:43:56;;;;;;;9.20;2.50;;;;;;;39.97;22.99;100522.40;109352;1251;65056;-63
2023/08/19 10:46:32;;;;;;;8.90;3.10;;;;;;;39.85;23.57;100519.63;109333;1251;58331;-66
2023/08/19 10:49:00;;;;;;;3.90;1.80;;;;;;;39.74;23.13;100523.12;109087;1253;294754;-64
2023/08/19 10:51:51;;;;;;;5.60;2.30;;;;;;;39.57;22.54;100522.38;109326;1251;58517;-64
2023/08/19 10:54:38;;;;;;;6.30;2.10;;;;;;;39.42;22.86;100520.66;109297;1251;58126;-65
2023/08/19 10:57:09;;;;;;;6.60;2.20;;;;;;;39.46;23.01;100517.80;109263;1251;65036;-64
2023/08/19 10:59:38;;;;;;;3.80;1.70;;;;;;;39.58;22.80;100517.46;109369;1251;58630;-66
2023/08/19 11:02:06;;;;;;;7.50;2.50;;;;;;;39.55;22.52;100517.29;109276;1251;64667;-63
2023/08/19 11:04:34;;;;;;;5.30;1.60;;;;;;;39.36;23.18;100515.98;109344;1251;58707;-65
2023/08/19 11:07:03;;;;;;;5.10;2.40;;;;;;;39.30;23.16;100513.19;109360;1251;58596;-64
2023/08/19 11:09:31;;;;;;;6.40;1.80;;;;;;;39.29;22.66;100517.06;109339;1251;65396;-67
2023/08/19 11:11:58;;;;;;;5.40;2.40;;;;;;;39.30;22.71;100513.72;109229;1251;68812;-68
2023/08/19 11:14:26;;;;;;;3.80;2.30;;;;;;;39.44;23.16;100508.27;109331;1251;63810;-65
2023/08/19 11:16:54;;;;;;;4.00;2.00;;;;;;;39.70;23.19;100507.55;109335;1251;58679;-66
2023/08/19 11:19:22;;;;;;;6.80;1.70;;;;;;;39.91;22.62;100505.42;109380;1251;58568;-63
2023/08/19 11:21:50;;;;;;;4.00;1.50;;;;;;;39.94;23.10;100507.48;109228;1251;64977;-67